createdAt,value
2023-01-30T00:02:26.710Z,22.30
2023-01-30T00:38:02.475Z,16.90
2023-01-30T00:41:50.102Z,19.50
2023-01-30T00:45:29.397Z,22.10
2023-01-30T01:04:33.353Z,18.40
2023-01-30T01:08:15.254Z,17.30
2023-01-30T01:24:33.612Z,19.40
2023-01-30T01:28:22.761Z,16.30
2023-01-30T01:48:35.904Z,14.40
2023-01-30T01:52:49.144Z,13.80
2023-01-30T01:56:40.566Z,16.90
2023-01-30T02:00:53.526Z,17.10
2023-01-30T02:05:00.280Z,12.90
2023-01-30T02:39:07.985Z,16.70
2023-01-30T02:43:22.039Z,15.60
2023-01-30T02:47:33.035Z,18.90
2023-01-30T02:51:44.418Z,11.20
2023-01-30T02:54:31.736Z,14.10
2023-01-30T02:57:56.845Z,13.00
2023-01-30T03:01:56.667Z,19.30
2023-01-30T03:06:13.387Z,10.90
2023-01-30T03:10:37.169Z,17.10
2023-01-30T03:15:07.304Z,20.00
2023-01-30T03:19:14.210Z,16.90
2023-01-30T03:40:06.584Z,16.30
2023-01-30T03:44:15.812Z,16.00
2023-01-30T04:00:56.102Z,15.50
2023-01-30T04:05:05.010Z,16.00
2023-01-30T04:22:01.340Z,15.10
2023-01-30T04:26:09.731Z,11.60
2023-01-30T04:42:37.414Z,12.80
2023-01-30T04:46:54.434Z,17.00
2023-01-30T04:51:03.582Z,14.60
2023-01-30T05:07:07.685Z,15.90
2023-01-30T05:10:57.882Z,17.20
2023-01-30T05:30:46.386Z,17.70
2023-01-30T05:34:35.409Z,23.40
2023-01-30T05:38:35.634Z,18.50
2023-01-30T05:55:10.430Z,19.30
2023-01-30T05:59:11.580Z,19.50
2023-01-30T06:03:07.953Z,18.30
2023-01-30T06:19:38.884Z,17.40
2023-01-30T06:23:47.146Z,19.00
2023-01-30T06:27:49.484Z,18.80
2023-01-30T06:30:36.944Z,18.50
2023-01-30T07:22:39.511Z,20.40
2023-01-30T07:46:56.109Z,18.30
2023-01-30T07:51:03.402Z,22.50
2023-01-30T07:55:10.579Z,16.90
2023-01-30T07:57:57.801Z,15.20
2023-01-30T08:00:26.050Z,21.80
2023-01-30T08:03:01.415Z,19.30
2023-01-30T08:05:54.780Z,18.70
2023-01-30T08:08:25.112Z,17.80
2023-01-30T08:10:52.258Z,18.80
2023-01-30T08:13:22.582Z,16.60
2023-01-30T08:15:50.450Z,20.20
2023-01-30T08:18:20.581Z,19.50
2023-01-30T08:20:48.130Z,13.80
2023-01-30T08:23:21.113Z,17.90
2023-01-30T08:25:48.263Z,16.70
2023-01-30T08:28:28.931Z,18.70
2023-01-30T08:30:57.525Z,20.60
2023-01-30T08:33:25.629Z,18.40
2023-01-30T08:35:52.939Z,18.60
2023-01-30T08:38:20.193Z,19.40
2023-01-30T08:40:47.443Z,21.90
2023-01-30T08:43:14.596Z,21.80
2023-01-30T08:45:41.855Z,21.80
2023-01-30T08:48:10.126Z,19.70
2023-01-30T08:50:37.486Z,20.00
2023-01-30T08:53:09.230Z,16.70
2023-01-30T08:55:39.967Z,19.90
2023-01-30T08:58:07.224Z,21.50
2023-01-30T09:00:34.370Z,19.20
2023-01-30T09:03:02.745Z,21.20
2023-01-30T09:05:30.178Z,22.40
2023-01-30T09:08:02.583Z,15.30
2023-01-30T09:10:32.596Z,23.30
2023-01-30T09:13:05.577Z,22.10
2023-01-30T09:15:33.754Z,17.30
2023-01-30T09:18:04.803Z,21.80
2023-01-30T09:21:44.444Z,20.60
2023-01-30T09:24:26.756Z,20.70
2023-01-30T09:27:14.279Z,22.00
2023-01-30T09:29:42.280Z,14.60
2023-01-30T09:33:24.558Z,19.20
2023-01-30T09:37:10.457Z,21.70
2023-01-30T09:40:59.329Z,22.60
2023-01-30T10:13:16.023Z,15.70
2023-01-30T10:17:08.673Z,18.80
2023-01-30T10:21:06.550Z,19.90
2023-01-30T10:25:19.280Z,17.60
2023-01-30T10:28:52.489Z,21.90
2023-01-30T10:32:34.374Z,20.50
2023-01-30T10:36:03.376Z,17.00
2023-01-30T10:40:02.295Z,18.30
2023-01-30T10:43:53.190Z,17.60
2023-01-30T10:48:06.120Z,25.20
2023-01-30T10:52:12.593Z,20.90
2023-01-30T10:56:07.713Z,17.10
2023-01-30T10:59:56.544Z,17.30
2023-01-30T11:04:02.173Z,17.70
2023-01-30T11:07:07.895Z,22.40
2023-01-30T11:11:12.053Z,21.90
2023-01-30T11:22:20.790Z,22.20
2023-01-30T11:26:18.063Z,21.60
2023-01-30T11:30:31.596Z,19.50
2023-01-30T11:34:10.024Z,21.30
2023-01-30T12:00:24.013Z,20.80
2023-01-30T12:03:37.959Z,22.30
2023-01-30T12:07:26.623Z,17.30
2023-01-30T12:11:09.754Z,20.80
2023-01-30T12:14:40.387Z,20.90
2023-01-30T12:18:49.666Z,13.50
2023-01-30T12:34:39.879Z,21.20
2023-01-30T12:38:41.881Z,20.60
2023-01-30T12:42:47.910Z,21.60
2023-01-30T12:46:54.122Z,18.50
2023-01-30T12:51:03.372Z,21.50
2023-01-30T12:55:09.333Z,20.10
2023-01-30T12:58:22.151Z,18.90
2023-01-30T13:02:28.047Z,21.80
2023-01-30T13:06:04.079Z,22.00
2023-01-30T13:10:35.661Z,27.60
2023-01-30T13:14:06.692Z,24.30
2023-01-30T13:18:00.478Z,23.20
2023-01-30T13:21:59.785Z,22.90
2023-01-30T13:26:20.029Z,19.40
2023-01-30T13:29:47.550Z,20.30
2023-01-30T13:33:21.159Z,16.70
2023-01-30T13:37:03.542Z,21.80
2023-01-30T13:40:56.739Z,26.60
2023-01-30T13:44:48.164Z,26.00
2023-01-30T13:48:55.277Z,20.90
2023-01-30T13:53:04.409Z,19.00
2023-01-30T13:57:01.601Z,21.00
2023-01-30T14:00:47.271Z,19.30
2023-01-30T14:04:25.671Z,19.80
2023-01-30T14:07:52.520Z,21.60
2023-01-30T14:19:42.574Z,18.70
2023-01-30T14:23:19.464Z,16.10
2023-01-30T14:27:21.914Z,19.00
2023-01-30T14:31:14.611Z,14.90
2023-01-30T14:35:06.615Z,11.50
2023-01-30T14:43:03.591Z,19.60
2023-01-30T14:46:15.309Z,15.00
2023-01-30T14:50:07.588Z,20.90
2023-01-30T14:53:19.141Z,23.20
2023-01-30T14:56:07.472Z,22.70
2023-01-30T14:58:42.812Z,20.90
2023-01-30T15:01:21.519Z,23.80
2023-01-30T15:04:45.839Z,23.10
2023-01-30T15:08:54.145Z,22.10
2023-01-30T15:12:14.341Z,19.70
2023-01-30T15:16:10.582Z,21.90
2023-01-30T15:20:12.448Z,23.20
2023-01-30T15:23:41.444Z,22.90
2023-01-30T15:27:21.814Z,21.80
2023-01-30T15:30:43.866Z,21.90
2023-01-30T15:33:57.696Z,20.30
2023-01-30T15:37:55.470Z,19.10
2023-01-30T15:41:24.263Z,20.40
2023-01-30T15:45:27.676Z,22.90
2023-01-30T15:49:13.368Z,24.50
2023-01-30T15:52:44.435Z,21.90
2023-01-30T15:56:24.185Z,24.80
2023-01-30T16:00:13.053Z,25.40
2023-01-30T16:03:43.796Z,18.40
2023-01-30T16:07:54.093Z,16.10
2023-01-30T16:11:26.870Z,26.80
2023-01-30T16:19:01.840Z,27.10
2023-01-30T16:35:26.296Z,22.50
2023-01-30T16:40:08.058Z,24.10
2023-01-30T17:11:53.911Z,22.70
2023-01-30T17:15:40.741Z,31.70
2023-01-30T17:19:06.657Z,30.40
2023-01-30T17:22:19.579Z,25.00
2023-01-30T17:26:22.771Z,24.20
2023-01-30T17:46:47.730Z,24.70
2023-01-30T17:50:19.195Z,27.40
2023-01-30T17:53:28.020Z,27.30
2023-01-30T18:01:42.424Z,19.10
2023-01-30T18:05:33.252Z,20.80
2023-01-30T18:25:18.519Z,22.90
2023-01-30T18:28:12.949Z,30.30
2023-01-30T18:31:25.534Z,22.60
2023-01-30T18:34:32.472Z,26.70
2023-01-30T18:37:19.294Z,28.20
2023-01-30T18:39:50.429Z,18.60
2023-01-30T18:42:43.089Z,23.30
2023-01-30T18:45:22.006Z,23.30
2023-01-30T18:47:57.633Z,25.10
2023-01-30T18:50:50.105Z,23.80
2023-01-30T18:54:12.657Z,26.70
2023-01-30T18:57:33.490Z,24.70
2023-01-30T19:00:30.141Z,24.30
2023-01-30T19:03:58.016Z,20.80
2023-01-30T19:07:55.919Z,25.00
2023-01-30T19:11:54.297Z,23.80
2023-01-30T19:30:48.281Z,21.20
2023-01-30T19:34:52.013Z,21.30
2023-01-30T19:54:43.867Z,22.80
2023-01-30T19:58:43.583Z,26.80
2023-01-30T20:02:45.621Z,26.10
2023-01-30T20:07:01.093Z,20.80
2023-01-30T20:19:36.978Z,17.60
2023-01-30T20:23:06.794Z,16.10
2023-01-30T20:26:48.603Z,18.30
2023-01-30T20:29:39.411Z,17.80
2023-01-30T20:32:58.464Z,15.60
2023-01-30T20:39:04.558Z,16.90
2023-01-30T20:41:37.492Z,16.90
2023-01-30T21:28:48.509Z,8.00
2023-01-30T21:49:35.244Z,11.50
2023-01-30T21:53:44.286Z,11.20
2023-01-30T22:17:38.600Z,15.80
2023-01-30T22:38:21.884Z,13.80
2023-01-30T22:42:30.015Z,17.20
2023-01-30T23:11:00.497Z,12.10
2023-01-30T23:15:04.109Z,14.50
2023-01-30T23:19:21.518Z,15.10
2023-01-30T23:23:32.701Z,14.20
2023-01-30T23:44:11.872Z,10.10
2023-01-30T23:48:20.322Z,9.80
